sensor_id;sensor_type;location;lat;lon;timestamp;P1;P2;P0
84887;PMS7003;75150;54.494;18.518;2024-02-23T00:00:18;35.25;30.50;18.25
84887;PMS7003;75150;54.494;18.518;2024-02-23T00:02:39;26.25;23.25;15.25
84887;PMS7003;75150;54.494;18.518;2024-02-23T00:04:40;30.00;26.00;17.75
84887;PMS7003;75150;54.494;18.518;2024-02-23T00:06:43;31.25;27.25;18.00
84887;PMS7003;75150;54.494;18.518;2024-02-23T00:08:44;34.75;26.00;18.00
84887;PMS7003;75150;54.494;18.518;2024-02-23T00:10:46;27.50;26.00;18.75
84887;PMS7003;75150;54.494;18.518;2024-02-23T00:12:47;33.25;29.00;19.25
84887;PMS7003;75150;54.494;18.518;2024-02-23T00:14:49;39.50;31.00;22.00
84887;PMS7003;75150;54.494;18.518;2024-02-23T00:16:50;30.75;25.75;17.00
84887;PMS7003;75150;54.494;18.518;2024-02-23T00:18:52;25.25;24.00;19.25
84887;PMS7003;75150;54.494;18.518;2024-02-23T00:20:53;32.00;25.75;16.25
84887;PMS7003;75150;54.494;18.518;2024-02-23T00:22:56;37.25;30.50;18.75
84887;PMS7003;75150;54.494;18.518;2024-02-23T00:24:57;31.25;29.50;18.00
84887;PMS7003;75150;54.494;18.518;2024-02-23T00:26:59;36.25;31.50;21.50
84887;PMS7003;75150;54.494;18.518;2024-02-23T00:29:00;28.00;26.25;16.50
84887;PMS7003;75150;54.494;18.518;2024-02-23T00:31:01;28.25;27.00;18.50
84887;PMS7003;75150;54.494;18.518;2024-02-23T00:33:03;43.75;31.00;18.75
84887;PMS7003;75150;54.494;18.518;2024-02-23T00:35:05;30.25;24.75;15.50
84887;PMS7003;75150;54.494;18.518;2024-02-23T00:37:07;28.25;24.75;17.00
84887;PMS7003;75150;54.494;18.518;2024-02-23T00:39:10;38.75;32.25;21.75
84887;PMS7003;75150;54.494;18.518;2024-02-23T00:41:11;29.50;27.75;19.75
84887;PMS7003;75150;54.494;18.518;2024-02-23T00:43:13;37.50;29.25;18.50
84887;PMS7003;75150;54.494;18.518;2024-02-23T00:45:14;42.00;28.50;18.00
84887;PMS7003;75150;54.494;18.518;2024-02-23T00:47:16;33.50;30.25;19.00
84887;PMS7003;75150;54.494;18.518;2024-02-23T00:49:17;31.75;24.25;17.00
84887;PMS7003;75150;54.494;18.518;2024-02-23T00:51:18;37.00;33.50;23.50
84887;PMS7003;75150;54.494;18.518;2024-02-23T00:53:20;28.75;25.25;17.00
84887;PMS7003;75150;54.494;18.518;2024-02-23T00:55:23;33.75;27.00;17.75
84887;PMS7003;75150;54.494;18.518;2024-02-23T00:57:24;28.00;26.50;17.00
84887;PMS7003;75150;54.494;18.518;2024-02-23T00:59:25;24.25;21.75;12.50
84887;PMS7003;75150;54.494;18.518;2024-02-23T01:01:27;35.50;31.25;18.00
84887;PMS7003;75150;54.494;18.518;2024-02-23T01:03:28;26.50;24.75;18.00
84887;PMS7003;75150;54.494;18.518;2024-02-23T01:05:29;34.75;24.75;16.25
84887;PMS7003;75150;54.494;18.518;2024-02-23T01:07:31;25.25;22.75;13.00
84887;PMS7003;75150;54.494;18.518;2024-02-23T01:09:32;27.00;22.00;17.50
84887;PMS7003;75150;54.494;18.518;2024-02-23T01:11:36;24.00;21.75;14.75
84887;PMS7003;75150;54.494;18.518;2024-02-23T01:13:37;28.50;24.00;17.00
84887;PMS7003;75150;54.494;18.518;2024-02-23T01:15:38;23.50;22.00;15.25
84887;PMS7003;75150;54.494;18.518;2024-02-23T01:17:40;25.50;24.25;15.00
84887;PMS7003;75150;54.494;18.518;2024-02-23T01:19:41;26.50;23.50;18.00
84887;PMS7003;75150;54.494;18.518;2024-02-23T01:21:44;26.25;23.50;14.75
84887;PMS7003;75150;54.494;18.518;2024-02-23T01:23:45;33.50;25.75;15.50
84887;PMS7003;75150;54.494;18.518;2024-02-23T01:25:46;22.25;19.50;13.00
84887;PMS7003;75150;54.494;18.518;2024-02-23T01:27:49;28.50;22.25;14.25
84887;PMS7003;75150;54.494;18.518;2024-02-23T01:29:51;15.25;11.00;9.75
84887;PMS7003;75150;54.494;18.518;2024-02-23T01:31:52;33.00;26.00;15.25
84887;PMS7003;75150;54.494;18.518;2024-02-23T01:33:53;23.75;21.50;15.25
84887;PMS7003;75150;54.494;18.518;2024-02-23T01:35:55;31.75;29.50;20.00
84887;PMS7003;75150;54.494;18.518;2024-02-23T01:37:56;29.75;24.75;15.50
84887;PMS7003;75150;54.494;18.518;2024-02-23T01:39:58;14.00;9.50;5.50
84887;PMS7003;75150;54.494;18.518;2024-02-23T01:42:00;29.75;23.75;15.50
84887;PMS7003;75150;54.494;18.518;2024-02-23T01:44:03;27.00;23.50;14.75
84887;PMS7003;75150;54.494;18.518;2024-02-23T01:46:04;29.25;25.25;15.75
84887;PMS7003;75150;54.494;18.518;2024-02-23T01:48:07;28.00;23.25;15.75
84887;PMS7003;75150;54.494;18.518;2024-02-23T01:50:08;31.50;26.75;16.00
84887;PMS7003;75150;54.494;18.518;2024-02-23T01:52:10;19.75;13.75;7.50
84887;PMS7003;75150;54.494;18.518;2024-02-23T01:54:12;22.00;15.50;11.25
84887;PMS7003;75150;54.494;18.518;2024-02-23T01:56:14;36.50;28.75;18.75
84887;PMS7003;75150;54.494;18.518;2024-02-23T01:58:17;22.00;20.00;13.75
84887;PMS7003;75150;54.494;18.518;2024-02-23T02:00:20;24.50;20.25;13.00
84887;PMS7003;75150;54.494;18.518;2024-02-23T02:02:22;27.25;24.25;16.50
84887;PMS7003;75150;54.494;18.518;2024-02-23T02:04:23;22.25;17.00;10.50
84887;PMS7003;75150;54.494;18.518;2024-02-23T02:06:25;25.75;23.25;15.25
84887;PMS7003;75150;54.494;18.518;2024-02-23T02:08:26;18.25;16.00;13.25
84887;PMS7003;75150;54.494;18.518;2024-02-23T02:10:28;23.00;20.75;13.50
84887;PMS7003;75150;54.494;18.518;2024-02-23T02:12:29;23.75;21.25;12.50
84887;PMS7003;75150;54.494;18.518;2024-02-23T02:14:30;21.75;15.75;9.50
84887;PMS7003;75150;54.494;18.518;2024-02-23T02:16:33;24.25;21.75;14.00
84887;PMS7003;75150;54.494;18.518;2024-02-23T02:18:34;25.50;22.00;14.75
84887;PMS7003;75150;54.494;18.518;2024-02-23T02:20:36;24.75;21.50;16.00
84887;PMS7003;75150;54.494;18.518;2024-02-23T02:22:41;28.50;23.00;13.50
84887;PMS7003;75150;54.494;18.518;2024-02-23T02:24:42;23.00;20.75;15.00
84887;PMS7003;75150;54.494;18.518;2024-02-23T02:26:44;27.25;20.50;14.00
84887;PMS7003;75150;54.494;18.518;2024-02-23T02:28:45;25.50;21.75;14.00
84887;PMS7003;75150;54.494;18.518;2024-02-23T02:30:47;24.50;19.25;13.00
84887;PMS7003;75150;54.494;18.518;2024-02-23T02:32:50;22.00;20.50;16.00
84887;PMS7003;75150;54.494;18.518;2024-02-23T02:34:51;18.50;17.50;11.75
84887;PMS7003;75150;54.494;18.518;2024-02-23T02:36:53;18.25;15.50;9.75
84887;PMS7003;75150;54.494;18.518;2024-02-23T02:38:54;30.75;23.25;15.00
84887;PMS7003;75150;54.494;18.518;2024-02-23T02:40:56;21.75;14.75;10.50
84887;PMS7003;75150;54.494;18.518;2024-02-23T02:42:57;22.50;20.75;12.50
84887;PMS7003;75150;54.494;18.518;2024-02-23T02:44:58;29.00;20.00;14.50
84887;PMS7003;75150;54.494;18.518;2024-02-23T02:47:00;21.25;18.50;14.50
84887;PMS7003;75150;54.494;18.518;2024-02-23T02:49:03;18.75;15.00;9.00
84887;PMS7003;75150;54.494;18.518;2024-02-23T02:51:04;27.00;18.00;14.00
84887;PMS7003;75150;54.494;18.518;2024-02-23T02:53:06;27.25;21.00;16.00
84887;PMS7003;75150;54.494;18.518;2024-02-23T02:55:07;23.25;20.75;15.00
84887;PMS7003;75150;54.494;18.518;2024-02-23T02:57:09;19.25;17.25;12.75
84887;PMS7003;75150;54.494;18.518;2024-02-23T02:59:11;22.75;20.25;14.75
84887;PMS7003;75150;54.494;18.518;2024-02-23T03:01:12;19.00;17.75;13.00
84887;PMS7003;75150;54.494;18.518;2024-02-23T03:03:13;13.25;10.50;5.00
84887;PMS7003;75150;54.494;18.518;2024-02-23T03:05:16;10.00;8.00;5.75
84887;PMS7003;75150;54.494;18.518;2024-02-23T03:07:18;21.00;19.25;11.25
84887;PMS7003;75150;54.494;18.518;2024-02-23T03:09:20;16.75;13.75;9.00
84887;PMS7003;75150;54.494;18.518;2024-02-23T03:11:21;16.25;14.50;9.50
84887;PMS7003;75150;54.494;18.518;2024-02-23T03:13:22;18.50;17.00;10.00
84887;PMS7003;75150;54.494;18.518;2024-02-23T03:15:24;21.25;19.25;14.50
84887;PMS7003;75150;54.494;18.518;2024-02-23T03:17:25;22.00;18.00;12.50
84887;PMS7003;75150;54.494;18.518;2024-02-23T03:19:26;18.25;17.00;12.00
84887;PMS7003;75150;54.494;18.518;2024-02-23T03:21:30;25.50;22.50;14.50
84887;PMS7003;75150;54.494;18.518;2024-02-23T03:23:31;21.50;17.00;13.00
84887;PMS7003;75150;54.494;18.518;2024-02-23T03:25:33;15.25;12.75;11.00
84887;PMS7003;75150;54.494;18.518;2024-02-23T03:27:34;22.75;22.00;15.25
84887;PMS7003;75150;54.494;18.518;2024-02-23T03:29:38;21.75;19.00;13.00
84887;PMS7003;75150;54.494;18.518;2024-02-23T03:31:39;14.75;13.50;8.00
84887;PMS7003;75150;54.494;18.518;2024-02-23T03:33:41;19.50;18.00;10.50
84887;PMS7003;75150;54.494;18.518;2024-02-23T03:35:42;22.00;17.00;9.75
84887;PMS7003;75150;54.494;18.518;2024-02-23T03:37:45;19.00;16.50;10.75
84887;PMS7003;75150;54.494;18.518;2024-02-23T03:39:46;16.00;13.50;10.00
84887;PMS7003;75150;54.494;18.518;2024-02-23T03:41:48;18.75;13.00;9.00
84887;PMS7003;75150;54.494;18.518;2024-02-23T03:43:49;17.00;15.75;10.25
84887;PMS7003;75150;54.494;18.518;2024-02-23T03:45:50;23.50;19.25;15.00
84887;PMS7003;75150;54.494;18.518;2024-02-23T03:47:52;25.75;19.00;13.75
84887;PMS7003;75150;54.494;18.518;2024-02-23T03:49:53;21.75;13.75;8.25
84887;PMS7003;75150;54.494;18.518;2024-02-23T03:51:54;23.75;21.75;15.25
84887;PMS7003;75150;54.494;18.518;2024-02-23T03:53:57;21.00;20.00;13.75
84887;PMS7003;75150;54.494;18.518;2024-02-23T03:55:59;18.75;17.25;11.25
84887;PMS7003;75150;54.494;18.518;2024-02-23T03:58:00;25.75;21.00;13.50
84887;PMS7003;75150;54.494;18.518;2024-02-23T04:00:02;21.75;19.75;14.25
84887;PMS7003;75150;54.494;18.518;2024-02-23T04:02:04;22.50;20.75;13.50
84887;PMS7003;75150;54.494;18.518;2024-02-23T04:04:05;23.50;22.00;17.00
84887;PMS7003;75150;54.494;18.518;2024-02-23T04:06:07;20.75;19.25;13.25
84887;PMS7003;75150;54.494;18.518;2024-02-23T04:08:08;25.00;19.50;14.00
84887;PMS7003;75150;54.494;18.518;2024-02-23T04:10:11;26.75;17.50;11.00
84887;PMS7003;75150;54.494;18.518;2024-02-23T04:12:12;22.00;22.00;14.75
84887;PMS7003;75150;54.494;18.518;2024-02-23T04:14:14;16.75;16.25;13.00
84887;PMS7003;75150;54.494;18.518;2024-02-23T04:16:15;24.25;22.25;14.25
84887;PMS7003;75150;54.494;18.518;2024-02-23T04:18:17;21.75;20.25;14.00
84887;PMS7003;75150;54.494;18.518;2024-02-23T04:20:18;24.50;19.75;13.00
84887;PMS7003;75150;54.494;18.518;2024-02-23T04:22:19;24.25;21.50;15.50
84887;PMS7003;75150;54.494;18.518;2024-02-23T04:24:21;19.75;14.75;12.25
84887;PMS7003;75150;54.494;18.518;2024-02-23T04:26:24;19.00;18.75;13.75
84887;PMS7003;75150;54.494;18.518;2024-02-23T04:28:25;20.00;16.25;10.25
84887;PMS7003;75150;54.494;18.518;2024-02-23T04:30:26;26.25;22.75;13.75
84887;PMS7003;75150;54.494;18.518;2024-02-23T04:32:27;26.75;20.75;14.25
84887;PMS7003;75150;54.494;18.518;2024-02-23T04:34:29;21.00;18.25;12.75
84887;PMS7003;75150;54.494;18.518;2024-02-23T04:36:30;20.50;18.00;13.00
84887;PMS7003;75150;54.494;18.518;2024-02-23T04:38:32;17.00;16.00;10.50
84887;PMS7003;75150;54.494;18.518;2024-02-23T04:40:33;27.25;20.50;12.50
84887;PMS7003;75150;54.494;18.518;2024-02-23T04:42:36;21.50;18.25;13.00
84887;PMS7003;75150;54.494;18.518;2024-02-23T04:44:37;22.25;19.25;14.00
84887;PMS7003;75150;54.494;18.518;2024-02-23T04:46:39;20.00;14.25;10.00
84887;PMS7003;75150;54.494;18.518;2024-02-23T04:48:40;13.75;13.00;11.00
84887;PMS7003;75150;54.494;18.518;2024-02-23T04:50:42;25.00;23.00;14.75
84887;PMS7003;75150;54.494;18.518;2024-02-23T04:52:43;17.00;16.25;12.00
84887;PMS7003;75150;54.494;18.518;2024-02-23T04:54:45;19.25;16.50;12.75
84887;PMS7003;75150;54.494;18.518;2024-02-23T04:56:46;23.75;19.00;14.25
84887;PMS7003;75150;54.494;18.518;2024-02-23T04:58:49;15.50;15.50;9.50
84887;PMS7003;75150;54.494;18.518;2024-02-23T05:00:50;20.50;17.00;13.00
84887;PMS7003;75150;54.494;18.518;2024-02-23T05:02:52;22.25;19.75;12.25
84887;PMS7003;75150;54.494;18.518;2024-02-23T05:04:53;19.75;19.25;13.00
84887;PMS7003;75150;54.494;18.518;2024-02-23T05:06:54;19.75;18.50;12.50
84887;PMS7003;75150;54.494;18.518;2024-02-23T05:08:56;23.00;19.25;13.50
84887;PMS7003;75150;54.494;18.518;2024-02-23T05:10:57;24.00;21.75;14.25
84887;PMS7003;75150;54.494;18.518;2024-02-23T05:12:59;23.75;19.00;13.50
84887;PMS7003;75150;54.494;18.518;2024-02-23T05:15:02;16.50;14.25;10.00
84887;PMS7003;75150;54.494;18.518;2024-02-23T05:17:03;18.25;17.00;11.25
84887;PMS7003;75150;54.494;18.518;2024-02-23T05:19:05;16.00;15.50;10.00
84887;PMS7003;75150;54.494;18.518;2024-02-23T05:21:06;19.00;17.00;10.75
84887;PMS7003;75150;54.494;18.518;2024-02-23T05:23:08;20.00;17.00;13.00
84887;PMS7003;75150;54.494;18.518;2024-02-23T05:25:09;17.00;16.25;12.00
84887;PMS7003;75150;54.494;18.518;2024-02-23T05:27:10;19.00;19.00;12.25
84887;PMS7003;75150;54.494;18.518;2024-02-23T05:29:12;25.75;21.50;12.75
84887;PMS7003;75150;54.494;18.518;2024-02-23T05:31:15;22.75;17.50;12.00
84887;PMS7003;75150;54.494;18.518;2024-02-23T05:33:16;16.75;11.50;8.50
84887;PMS7003;75150;54.494;18.518;2024-02-23T05:35:17;13.75;13.75;11.00
84887;PMS7003;75150;54.494;18.518;2024-02-23T05:37:19;16.75;14.50;11.75
84887;PMS7003;75150;54.494;18.518;2024-02-23T05:39:21;17.00;14.75;10.75
84887;PMS7003;75150;54.494;18.518;2024-02-23T05:41:22;16.75;16.75;13.75
84887;PMS7003;75150;54.494;18.518;2024-02-23T05:43:23;21.50;17.50;11.50
84887;PMS7003;75150;54.494;18.518;2024-02-23T05:45:25;15.00;15.00;11.00
84887;PMS7003;75150;54.494;18.518;2024-02-23T05:47:28;20.00;18.75;12.75
84887;PMS7003;75150;54.494;18.518;2024-02-23T05:49:29;17.50;15.75;11.75
84887;PMS7003;75150;54.494;18.518;2024-02-23T05:51:30;11.50;11.00;10.25
84887;PMS7003;75150;54.494;18.518;2024-02-23T05:53:32;12.75;12.75;10.00
84887;PMS7003;75150;54.494;18.518;2024-02-23T05:55:33;12.25;11.50;6.75
84887;PMS7003;75150;54.494;18.518;2024-02-23T05:57:34;11.25;11.25;7.00
84887;PMS7003;75150;54.494;18.518;2024-02-23T05:59:36;12.25;11.00;9.00
84887;PMS7003;75150;54.494;18.518;2024-02-23T06:01:37;15.00;14.00;11.50
84887;PMS7003;75150;54.494;18.518;2024-02-23T06:03:40;16.75;15.00;10.50
84887;PMS7003;75150;54.494;18.518;2024-02-23T06:05:41;11.50;11.25;8.25
84887;PMS7003;75150;54.494;18.518;2024-02-23T06:07:43;15.00;13.75;10.25
84887;PMS7003;75150;54.494;18.518;2024-02-23T06:09:44;16.25;15.25;10.75
84887;PMS7003;75150;54.494;18.518;2024-02-23T06:11:46;9.75;9.75;9.00
84887;PMS7003;75150;54.494;18.518;2024-02-23T06:13:47;15.00;12.00;8.25
84887;PMS7003;75150;54.494;18.518;2024-02-23T06:15:48;14.75;12.00;8.00
84887;PMS7003;75150;54.494;18.518;2024-02-23T06:17:50;63.00;48.75;31.50
84887;PMS7003;75150;54.494;18.518;2024-02-23T06:19:53;20.75;19.50;13.25
84887;PMS7003;75150;54.494;18.518;2024-02-23T06:21:54;18.75;15.75;11.75
84887;PMS7003;75150;54.494;18.518;2024-02-23T06:23:55;16.75;14.50;10.25
84887;PMS7003;75150;54.494;18.518;2024-02-23T06:25:57;11.00;11.00;8.25
84887;PMS7003;75150;54.494;18.518;2024-02-23T06:27:58;15.75;14.25;10.00
84887;PMS7003;75150;54.494;18.518;2024-02-23T06:29:59;16.25;15.25;8.50
84887;PMS7003;75150;54.494;18.518;2024-02-23T06:32:01;13.00;13.00;9.00
84887;PMS7003;75150;54.494;18.518;2024-02-23T06:34:02;10.75;10.25;7.25
84887;PMS7003;75150;54.494;18.518;2024-02-23T06:36:05;16.25;11.50;8.50
84887;PMS7003;75150;54.494;18.518;2024-02-23T06:38:07;16.00;15.00;11.00
84887;PMS7003;75150;54.494;18.518;2024-02-23T06:40:09;14.75;11.25;10.00
84887;PMS7003;75150;54.494;18.518;2024-02-23T06:42:11;38.50;30.75;24.25
84887;PMS7003;75150;54.494;18.518;2024-02-23T06:44:12;19.25;17.75;14.75
84887;PMS7003;75150;54.494;18.518;2024-02-23T06:46:13;34.75;33.25;24.50
84887;PMS7003;75150;54.494;18.518;2024-02-23T06:48:15;21.00;17.50;13.25
84887;PMS7003;75150;54.494;18.518;2024-02-23T06:50:16;23.00;17.50;13.50
84887;PMS7003;75150;54.494;18.518;2024-02-23T06:52:19;19.50;18.25;14.75
84887;PMS7003;75150;54.494;18.518;2024-02-23T06:54:20;16.75;15.75;12.00
84887;PMS7003;75150;54.494;18.518;2024-02-23T06:56:22;31.25;27.25;20.50
84887;PMS7003;75150;54.494;18.518;2024-02-23T06:58:23;14.25;14.25;11.75
84887;PMS7003;75150;54.494;18.518;2024-02-23T07:00:25;12.00;10.50;9.25
84887;PMS7003;75150;54.494;18.518;2024-02-23T07:02:26;6.75;6.75;6.25
84887;PMS7003;75150;54.494;18.518;2024-02-23T07:04:28;22.75;17.25;14.25
84887;PMS7003;75150;54.494;18.518;2024-02-23T07:06:29;19.25;16.75;12.00
84887;PMS7003;75150;54.494;18.518;2024-02-23T07:08:32;20.00;17.00;12.25
84887;PMS7003;75150;54.494;18.518;2024-02-23T07:10:33;11.50;10.00;8.00
84887;PMS7003;75150;54.494;18.518;2024-02-23T07:12:35;11.25;11.25;8.00
84887;PMS7003;75150;54.494;18.518;2024-02-23T07:14:43;10.75;10.75;7.25
84887;PMS7003;75150;54.494;18.518;2024-02-23T07:16:49;12.00;10.75;7.00
84887;PMS7003;75150;54.494;18.518;2024-02-23T07:18:50;16.75;12.75;10.50
84887;PMS7003;75150;54.494;18.518;2024-02-23T07:20:51;11.50;10.00;8.00
84887;PMS7003;75150;54.494;18.518;2024-02-23T07:22:53;9.25;8.00;7.00
84887;PMS7003;75150;54.494;18.518;2024-02-23T07:24:55;7.50;7.50;7.00
84887;PMS7003;75150;54.494;18.518;2024-02-23T07:26:57;7.25;7.25;6.25
84887;PMS7003;75150;54.494;18.518;2024-02-23T07:28:58;11.50;10.00;7.25
84887;PMS7003;75150;54.494;18.518;2024-02-23T07:30:59;8.50;8.50;7.00
84887;PMS7003;75150;54.494;18.518;2024-02-23T07:33:01;7.33;7.33;6.33
84887;PMS7003;75150;54.494;18.518;2024-02-23T07:35:03;8.25;7.00;6.00
84887;PMS7003;75150;54.494;18.518;2024-02-23T07:37:05;6.00;6.00;3.67
84887;PMS7003;75150;54.494;18.518;2024-02-23T07:39:06;7.67;6.00;4.33
84887;PMS7003;75150;54.494;18.518;2024-02-23T07:41:09;11.00;7.00;5.67
84887;PMS7003;75150;54.494;18.518;2024-02-23T07:43:10;6.33;5.00;3.33
84887;PMS7003;75150;54.494;18.518;2024-02-23T07:45:12;7.00;7.00;4.33
84887;PMS7003;75150;54.494;18.518;2024-02-23T07:47:13;7.00;7.00;6.33
84887;PMS7003;75150;54.494;18.518;2024-02-23T07:49:15;5.33;5.33;4.67
84887;PMS7003;75150;54.494;18.518;2024-02-23T07:51:16;9.00;3.67;3.33
84887;PMS7003;75150;54.494;18.518;2024-02-23T07:53:18;6.00;4.33;3.00
84887;PMS7003;75150;54.494;18.518;2024-02-23T07:55:19;11.50;11.50;8.25
84887;PMS7003;75150;54.494;18.518;2024-02-23T07:57:22;4.67;4.67;4.00
84887;PMS7003;75150;54.494;18.518;2024-02-23T07:59:23;8.00;6.33;5.33
84887;PMS7003;75150;54.494;18.518;2024-02-23T08:01:25;13.00;9.25;7.00
84887;PMS7003;75150;54.494;18.518;2024-02-23T08:03:26;6.00;6.00;4.33
84887;PMS7003;75150;54.494;18.518;2024-02-23T08:05:27;5.67;4.00;3.00
84887;PMS7003;75150;54.494;18.518;2024-02-23T08:07:29;9.33;7.33;5.67
84887;PMS7003;75150;54.494;18.518;2024-02-23T08:09:30;4.33;2.67;2.00
84887;PMS7003;75150;54.494;18.518;2024-02-23T08:11:31;3.00;2.00;1.00
84887;PMS7003;75150;54.494;18.518;2024-02-23T08:13:34;6.00;4.00;3.00
84887;PMS7003;75150;54.494;18.518;2024-02-23T08:15:36;2.00;2.00;2.00
84887;PMS7003;75150;54.494;18.518;2024-02-23T08:17:37;4.67;4.67;3.00
84887;PMS7003;75150;54.494;18.518;2024-02-23T08:19:38;5.00;4.67;3.67
84887;PMS7003;75150;54.494;18.518;2024-02-23T08:21:40;10.33;7.67;6.67
84887;PMS7003;75150;54.494;18.518;2024-02-23T08:23:41;6.33;6.00;3.00
84887;PMS7003;75150;54.494;18.518;2024-02-23T08:25:43;4.67;3.00;2.67
84887;PMS7003;75150;54.494;18.518;2024-02-23T08:27:44;13.00;8.33;6.00
84887;PMS7003;75150;54.494;18.518;2024-02-23T08:29:47;9.00;7.67;6.00
84887;PMS7003;75150;54.494;18.518;2024-02-23T08:31:48;9.00;7.33;5.33
84887;PMS7003;75150;54.494;18.518;2024-02-23T08:33:49;3.00;3.00;1.67
84887;PMS7003;75150;54.494;18.518;2024-02-23T08:35:51;16.33;12.00;8.00
84887;PMS7003;75150;54.494;18.518;2024-02-23T08:37:52;6.00;6.00;3.67
84887;PMS7003;75150;54.494;18.518;2024-02-23T08:39:53;4.00;4.00;3.00
84887;PMS7003;75150;54.494;18.518;2024-02-23T08:41:55;2.00;2.00;2.00
84887;PMS7003;75150;54.494;18.518;2024-02-23T08:43:57;1.33;1.00;1.00
84887;PMS7003;75150;54.494;18.518;2024-02-23T08:46:00;1.33;1.33;1.00
84887;PMS7003;75150;54.494;18.518;2024-02-23T08:48:01;3.33;2.00;2.00
84887;PMS7003;75150;54.494;18.518;2024-02-23T08:50:03;1.00;1.00;1.00
84887;PMS7003;75150;54.494;18.518;2024-02-23T08:52:04;3.00;2.00;1.00
84887;PMS7003;75150;54.494;18.518;2024-02-23T08:54:06;3.00;3.00;2.00
84887;PMS7003;75150;54.494;18.518;2024-02-23T08:56:08;1.00;1.00;1.00
84887;PMS7003;75150;54.494;18.518;2024-02-23T08:58:09;2.00;2.00;2.00
84887;PMS7003;75150;54.494;18.518;2024-02-23T09:00:11;0.67;0.67;0.00
84887;PMS7003;75150;54.494;18.518;2024-02-23T09:02:14;3.00;3.00;2.00
84887;PMS7003;75150;54.494;18.518;2024-02-23T09:04:16;2.00;2.00;2.00
84887;PMS7003;75150;54.494;18.518;2024-02-23T09:06:17;3.67;3.67;3.00
84887;PMS7003;75150;54.494;18.518;2024-02-23T09:08:18;3.00;2.00;1.67
84887;PMS7003;75150;54.494;18.518;2024-02-23T09:10:20;3.00;3.00;2.00
84887;PMS7003;75150;54.494;18.518;2024-02-23T09:12:21;2.67;2.67;2.00
84887;PMS7003;75150;54.494;18.518;2024-02-23T09:14:23;1.67;1.67;1.33
84887;PMS7003;75150;54.494;18.518;2024-02-23T09:16:24;2.67;2.67;2.33
84887;PMS7003;75150;54.494;18.518;2024-02-23T09:18:27;2.00;2.00;1.67
84887;PMS7003;75150;54.494;18.518;2024-02-23T09:20:28;3.00;3.00;2.67
84887;PMS7003;75150;54.494;18.518;2024-02-23T09:22:30;3.67;3.00;2.00
84887;PMS7003;75150;54.494;18.518;2024-02-23T09:24:31;7.00;4.00;3.00
84887;PMS7003;75150;54.494;18.518;2024-02-23T09:26:32;3.00;3.00;2.00
84887;PMS7003;75150;54.494;18.518;2024-02-23T09:28:34;6.00;6.00;4.33
84887;PMS7003;75150;54.494;18.518;2024-02-23T09:30:35;3.67;3.67;3.00
84887;PMS7003;75150;54.494;18.518;2024-02-23T09:32:36;1.67;1.67;1.00
84887;PMS7003;75150;54.494;18.518;2024-02-23T09:34:39;1.00;1.00;1.00
84887;PMS7003;75150;54.494;18.518;2024-02-23T09:36:40;4.67;2.33;2.00
84887;PMS7003;75150;54.494;18.518;2024-02-23T09:38:42;1.00;1.00;1.00
84887;PMS7003;75150;54.494;18.518;2024-02-23T09:40:43;1.00;1.00;0.00
84887;PMS7003;75150;54.494;18.518;2024-02-23T09:42:47;1.00;1.00;1.00
84887;PMS7003;75150;54.494;18.518;2024-02-23T09:44:57;0.00;0.00;0.00
84887;PMS7003;75150;54.494;18.518;2024-02-23T09:46:59;2.00;1.00;1.00
84887;PMS7003;75150;54.494;18.518;2024-02-23T09:49:01;4.67;1.00;1.00
84887;PMS7003;75150;54.494;18.518;2024-02-23T09:51:05;1.00;1.00;1.00
84887;PMS7003;75150;54.494;18.518;2024-02-23T09:53:07;1.00;1.00;1.00
84887;PMS7003;75150;54.494;18.518;2024-02-23T09:55:11;1.00;1.00;0.67
84887;PMS7003;75150;54.494;18.518;2024-02-23T09:57:13;1.00;1.00;1.00
84887;PMS7003;75150;54.494;18.518;2024-02-23T09:59:16;1.00;1.00;0.00
84887;PMS7003;75150;54.494;18.518;2024-02-23T10:01:19;1.00;1.00;1.00
84887;PMS7003;75150;54.494;18.518;2024-02-23T10:03:28;0.00;0.00;0.00
84887;PMS7003;75150;54.494;18.518;2024-02-23T10:05:30;0.33;0.00;0.00
84887;PMS7003;75150;54.494;18.518;2024-02-23T10:07:34;0.00;0.00;0.00
84887;PMS7003;75150;54.494;18.518;2024-02-23T10:09:35;0.00;0.00;0.00
84887;PMS7003;75150;54.494;18.518;2024-02-23T10:11:36;2.00;2.00;1.00
84887;PMS7003;75150;54.494;18.518;2024-02-23T10:13:38;0.00;0.00;0.00
84887;PMS7003;75150;54.494;18.518;2024-02-23T10:15:39;4.00;1.00;1.00
84887;PMS7003;75150;54.494;18.518;2024-02-23T10:17:40;2.00;0.00;0.00
84887;PMS7003;75150;54.494;18.518;2024-02-23T10:19:43;5.33;3.00;2.67
84887;PMS7003;75150;54.494;18.518;2024-02-23T10:21:45;3.00;3.00;2.00
84887;PMS7003;75150;54.494;18.518;2024-02-23T10:23:48;1.33;1.33;1.00
84887;PMS7003;75150;54.494;18.518;2024-02-23T10:25:50;1.00;1.00;1.00
84887;PMS7003;75150;54.494;18.518;2024-02-23T10:27:52;0.00;0.00;0.00
84887;PMS7003;75150;54.494;18.518;2024-02-23T10:29:53;0.00;0.00;0.00
84887;PMS7003;75150;54.494;18.518;2024-02-23T10:31:55;2.00;1.00;1.00
84887;PMS7003;75150;54.494;18.518;2024-02-23T10:33:58;0.00;0.00;0.00
84887;PMS7003;75150;54.494;18.518;2024-02-23T10:36:00;0.00;0.00;0.00
84887;PMS7003;75150;54.494;18.518;2024-02-23T10:38:02;1.00;0.00;0.00
84887;PMS7003;75150;54.494;18.518;2024-02-23T10:40:10;1.00;0.67;0.67
84887;PMS7003;75150;54.494;18.518;2024-02-23T10:42:12;0.00;0.00;0.00
84887;PMS7003;75150;54.494;18.518;2024-02-23T10:44:17;0.00;0.00;0.00
84887;PMS7003;75150;54.494;18.518;2024-02-23T10:46:18;0.00;0.00;0.00
84887;PMS7003;75150;54.494;18.518;2024-02-23T10:48:21;15.25;14.00;9.00
84887;PMS7003;75150;54.494;18.518;2024-02-23T10:50:24;2.00;1.00;1.00
84887;PMS7003;75150;54.494;18.518;2024-02-23T10:52:26;0.00;0.00;0.00
84887;PMS7003;75150;54.494;18.518;2024-02-23T10:54:29;0.00;0.00;0.00
84887;PMS7003;75150;54.494;18.518;2024-02-23T10:56:33;0.00;0.00;0.00
84887;PMS7003;75150;54.494;18.518;2024-02-23T10:58:35;0.00;0.00;0.00
84887;PMS7003;75150;54.494;18.518;2024-02-23T11:00:36;0.00;0.00;0.00
84887;PMS7003;75150;54.494;18.518;2024-02-23T11:02:38;0.00;0.00;0.00
84887;PMS7003;75150;54.494;18.518;2024-02-23T11:04:44;0.00;0.00;0.00
84887;PMS7003;75150;54.494;18.518;2024-02-23T11:06:50;0.00;0.00;0.00
84887;PMS7003;75150;54.494;18.518;2024-02-23T11:08:52;0.00;0.00;0.00
84887;PMS7003;75150;54.494;18.518;2024-02-23T11:10:54;0.00;0.00;0.00
84887;PMS7003;75150;54.494;18.518;2024-02-23T11:13:00;1.00;0.00;0.00
84887;PMS7003;75150;54.494;18.518;2024-02-23T11:15:02;0.00;0.00;0.00
84887;PMS7003;75150;54.494;18.518;2024-02-23T11:17:04;0.00;0.00;0.00
84887;PMS7003;75150;54.494;18.518;2024-02-23T11:19:06;1.00;0.00;0.00
84887;PMS7003;75150;54.494;18.518;2024-02-23T11:21:09;0.00;0.00;0.00
84887;PMS7003;75150;54.494;18.518;2024-02-23T11:23:14;0.00;0.00;0.00